sensor_id;sensor_type;location;lat;lon;timestamp;pressure;altitude;pressure_sealevel;temperature;humidity
60015;BME280;45867;52.480;6.056;2024-02-21T00:00:43;100630.97;;;8.52;100.00
60015;BME280;45867;52.480;6.056;2024-02-21T00:03:09;100629.09;;;8.48;100.00
60015;BME280;45867;52.480;6.056;2024-02-21T00:05:36;100625.13;;;8.45;100.00
60015;BME280;45867;52.480;6.056;2024-02-21T00:08:06;100622.78;;;8.49;100.00
60015;BME280;45867;52.480;6.056;2024-02-21T00:10:35;100610.59;;;8.48;100.00
60015;BME280;45867;52.480;6.056;2024-02-21T00:13:02;100623.25;;;8.45;100.00
60015;BME280;45867;52.480;6.056;2024-02-21T00:15:29;100629.94;;;8.58;100.00
60015;BME280;45867;52.480;6.056;2024-02-21T00:17:55;100644.72;;;8.54;100.00
60015;BME280;45867;52.480;6.056;2024-02-21T00:20:22;100639.69;;;8.53;100.00
60015;BME280;45867;52.480;6.056;2024-02-21T00:22:49;100619.91;;;8.55;100.00
60015;BME280;45867;52.480;6.056;2024-02-21T00:25:15;100628.06;;;8.49;100.00
60015;BME280;45867;52.480;6.056;2024-02-21T00:27:42;100632.03;;;8.51;100.00
60015;BME280;45867;52.480;6.056;2024-02-21T00:30:09;100628.06;;;8.49;100.00
60015;BME280;45867;52.480;6.056;2024-02-21T00:32:40;100619.31;;;8.48;100.00
60015;BME280;45867;52.480;6.056;2024-02-21T00:35:10;100629.09;;;8.48;100.00
60015;BME280;45867;52.480;6.056;2024-02-21T00:37:37;100622.28;;;8.57;100.00
60015;BME280;45867;52.480;6.056;2024-02-21T00:40:04;100605.09;;;8.54;100.00
60015;BME280;45867;52.480;6.056;2024-02-21T00:42:30;100599.25;;;8.47;100.00
60015;BME280;45867;52.480;6.056;2024-02-21T00:44:57;100593.22;;;8.52;100.00
60015;BME280;45867;52.480;6.056;2024-02-21T00:47:24;100587.66;;;8.53;100.00
60015;BME280;45867;52.480;6.056;2024-02-21T00:49:53;100600.84;;;8.43;100.00
60015;BME280;45867;52.480;6.056;2024-02-21T00:52:19;100593.16;;;8.41;100.00
60015;BME280;45867;52.480;6.056;2024-02-21T00:54:46;100592.63;;;8.39;100.00
60015;BME280;45867;52.480;6.056;2024-02-21T00:57:20;100571.69;;;8.28;100.00
60015;BME280;45867;52.480;6.056;2024-02-21T00:59:46;100581.53;;;8.42;100.00
60015;BME280;45867;52.480;6.056;2024-02-21T01:02:13;100559.53;;;8.27;100.00
60015;BME280;45867;52.480;6.056;2024-02-21T01:04:39;100576.78;;;8.39;100.00
60015;BME280;45867;52.480;6.056;2024-02-21T01:07:06;100568.28;;;8.37;100.00
60015;BME280;45867;52.480;6.056;2024-02-21T01:09:33;100549.28;;;8.35;100.00
60015;BME280;45867;52.480;6.056;2024-02-21T01:11:59;100566.75;;;8.41;100.00
60015;BME280;45867;52.480;6.056;2024-02-21T01:14:26;100533.41;;;8.30;100.00
60015;BME280;45867;52.480;6.056;2024-02-21T01:16:52;100553.78;;;8.40;100.00
60015;BME280;45867;52.480;6.056;2024-02-21T01:19:19;100548.50;;;8.35;100.00
60015;BME280;45867;52.480;6.056;2024-02-21T01:21:46;100552.50;;;8.42;100.00
60015;BME280;45867;52.480;6.056;2024-02-21T01:24:12;100539.03;;;8.44;100.00
60015;BME280;45867;52.480;6.056;2024-02-21T01:26:38;100499.31;;;8.23;100.00
60015;BME280;45867;52.480;6.056;2024-02-21T01:29:05;100519.47;;;8.40;100.00
60015;BME280;45867;52.480;6.056;2024-02-21T01:31:31;100502.28;;;8.32;100.00
60015;BME280;45867;52.480;6.056;2024-02-21T01:33:58;100510.78;;;8.44;100.00
60015;BME280;45867;52.480;6.056;2024-02-21T01:36:24;100504.63;;;8.34;100.00
60015;BME280;45867;52.480;6.056;2024-02-21T01:38:51;100506.50;;;8.33;100.00
60015;BME280;45867;52.480;6.056;2024-02-21T01:41:18;100510.19;;;8.37;100.00
60015;BME280;45867;52.480;6.056;2024-02-21T01:43:44;100506.25;;;8.35;100.00
60015;BME280;45867;52.480;6.056;2024-02-21T01:46:11;100504.13;;;8.37;100.00
60015;BME280;45867;52.480;6.056;2024-02-21T01:48:38;100490.66;;;8.38;100.00
60015;BME280;45867;52.480;6.056;2024-02-21T01:51:06;100501.75;;;8.35;100.00
60015;BME280;45867;52.480;6.056;2024-02-21T01:53:35;100479.00;;;8.29;100.00
60015;BME280;45867;52.480;6.056;2024-02-21T01:56:03;100485.13;;;8.35;100.00
60015;BME280;45867;52.480;6.056;2024-02-21T01:58:32;100473.47;;;8.31;100.00
60015;BME280;45867;52.480;6.056;2024-02-21T02:01:14;100489.59;;;8.34;100.00
60015;BME280;45867;52.480;6.056;2024-02-21T02:03:45;100487.22;;;8.33;100.00
60015;BME280;45867;52.480;6.056;2024-02-21T02:06:14;100470.06;;;8.30;100.00
60015;BME280;45867;52.480;6.056;2024-02-21T02:08:41;100470.06;;;8.30;100.00
60015;BME280;45867;52.480;6.056;2024-02-21T02:11:08;100480.63;;;8.30;100.00
60015;BME280;45867;52.480;6.056;2024-02-21T02:13:35;100488.00;;;8.33;100.00
60015;BME280;45867;52.480;6.056;2024-02-21T02:16:01;100474.84;;;8.38;100.00
60015;BME280;45867;52.480;6.056;2024-02-21T02:18:28;100484.84;;;8.36;100.00
60015;BME280;45867;52.480;6.056;2024-02-21T02:20:54;100472.16;;;8.33;100.00
60015;BME280;45867;52.480;6.056;2024-02-21T02:23:31;100468.81;;;8.43;100.00
60015;BME280;45867;52.480;6.056;2024-02-21T02:25:58;100475.88;;;8.32;100.00
60015;BME280;45867;52.480;6.056;2024-02-21T02:28:25;100471.66;;;8.36;100.00
60015;BME280;45867;52.480;6.056;2024-02-21T02:30:51;100468.75;;;8.38;100.00
60015;BME280;45867;52.480;6.056;2024-02-21T02:33:18;100487.00;;;8.39;100.00
60015;BME280;45867;52.480;6.056;2024-02-21T02:35:45;100475.06;;;8.37;100.00
60015;BME280;45867;52.480;6.056;2024-02-21T02:38:12;100476.69;;;8.38;100.00
60015;BME280;45867;52.480;6.056;2024-02-21T02:40:39;100481.16;;;8.37;100.00
60015;BME280;45867;52.480;6.056;2024-02-21T02:43:09;100479.31;;;8.33;100.00
60015;BME280;45867;52.480;6.056;2024-02-21T02:45:35;100476.69;;;8.38;100.00
60015;BME280;45867;52.480;6.056;2024-02-21T02:48:05;100462.94;;;8.36;100.00
60015;BME280;45867;52.480;6.056;2024-02-21T02:50:32;100482.22;;;8.36;100.00
60015;BME280;45867;52.480;6.056;2024-02-21T02:52:58;100431.50;;;8.24;100.00
60015;BME280;45867;52.480;6.056;2024-02-21T02:55:25;100445.47;;;8.25;100.00
60015;BME280;45867;52.480;6.056;2024-02-21T02:57:52;100458.16;;;8.28;100.00
60015;BME280;45867;52.480;6.056;2024-02-21T03:00:19;100419.31;;;8.18;100.00
60015;BME280;45867;52.480;6.056;2024-02-21T03:02:46;100448.66;;;8.32;100.00
60015;BME280;45867;52.480;6.056;2024-02-21T03:05:19;100432.53;;;8.23;100.00
60015;BME280;45867;52.480;6.056;2024-02-21T03:07:49;100440.75;;;8.37;100.00
60015;BME280;45867;52.480;6.056;2024-02-21T03:10:16;100432.81;;;8.32;100.00
60015;BME280;45867;52.480;6.056;2024-02-21T03:12:44;100431.22;;;8.26;100.00
60015;BME280;45867;52.480;6.056;2024-02-21T03:15:12;100405.88;;;8.19;100.00
60015;BME280;45867;52.480;6.056;2024-02-21T03:17:40;100414.59;;;8.25;100.00
60015;BME280;45867;52.480;6.056;2024-02-21T03:20:07;100426.22;;;8.29;100.00
60015;BME280;45867;52.480;6.056;2024-02-21T03:22:37;100401.41;;;8.25;100.00
60015;BME280;45867;52.480;6.056;2024-02-21T03:25:08;100405.38;;;8.28;100.00
60015;BME280;45867;52.480;6.056;2024-02-21T03:27:34;100394.78;;;8.22;100.00
60015;BME280;45867;52.480;6.056;2024-02-21T03:30:01;100379.50;;;8.25;100.00
60015;BME280;45867;52.480;6.056;2024-02-21T03:32:27;100374.22;;;8.25;100.00
60015;BME280;45867;52.480;6.056;2024-02-21T03:34:54;100378.69;;;8.19;100.00
60015;BME280;45867;52.480;6.056;2024-02-21T03:37:20;100365.19;;;8.15;100.00
60015;BME280;45867;52.480;6.056;2024-02-21T03:39:47;100355.72;;;8.14;100.00
60015;BME280;45867;52.480;6.056;2024-02-21T03:42:14;100344.09;;;8.05;100.00
60015;BME280;45867;52.480;6.056;2024-02-21T03:44:40;100354.16;;;8.18;100.00
60015;BME280;45867;52.480;6.056;2024-02-21T03:47:10;100341.44;;;8.15;100.00
60015;BME280;45867;52.480;6.056;2024-02-21T03:49:39;100345.41;;;8.18;100.00
60015;BME280;45867;52.480;6.056;2024-02-21T03:52:06;100338.53;;;8.12;100.00
60015;BME280;45867;52.480;6.056;2024-02-21T03:54:32;100335.41;;;8.20;100.00
60015;BME280;45867;52.480;6.056;2024-02-21T03:56:59;100322.47;;;8.18;100.00
60015;BME280;45867;52.480;6.056;2024-02-21T03:59:26;100319.28;;;8.06;100.00
60015;BME280;45867;52.480;6.056;2024-02-21T04:01:55;100311.91;;;8.13;100.00
60015;BME280;45867;52.480;6.056;2024-02-21T04:04:22;100319.81;;;8.23;100.00
60015;BME280;45867;52.480;6.056;2024-02-21T04:06:49;100315.06;;;8.15;100.00
60015;BME280;45867;52.480;6.056;2024-02-21T04:09:16;100320.09;;;8.17;100.00
60015;BME280;45867;52.480;6.056;2024-02-21T04:11:45;100325.34;;;8.12;100.00
60015;BME280;45867;52.480;6.056;2024-02-21T04:14:15;100306.59;;;8.03;100.00
60015;BME280;45867;52.480;6.056;2024-02-21T04:16:41;100306.09;;;8.16;100.00
60015;BME280;45867;52.480;6.056;2024-02-21T04:19:08;100296.59;;;8.10;100.00
60015;BME280;45867;52.480;6.056;2024-02-21T04:21:35;100289.19;;;8.02;100.00
60015;BME280;45867;52.480;6.056;2024-02-21T04:24:02;100286.56;;;8.02;100.00
60015;BME280;45867;52.480;6.056;2024-02-21T04:26:28;100313.75;;;8.18;100.00
60015;BME280;45867;52.480;6.056;2024-02-21T04:28:55;100292.63;;;8.13;100.00
60015;BME280;45867;52.480;6.056;2024-02-21T04:31:24;100290.28;;;8.16;100.00
60015;BME280;45867;52.480;6.056;2024-02-21T04:33:51;100276.28;;;8.11;100.00
60015;BME280;45867;52.480;6.056;2024-02-21T04:36:17;100268.59;;;8.04;100.00
60015;BME280;45867;52.480;6.056;2024-02-21T04:38:45;100287.09;;;8.19;100.00
60015;BME280;45867;52.480;6.056;2024-02-21T04:41:11;100268.09;;;8.02;100.00
60015;BME280;45867;52.480;6.056;2024-02-21T04:43:38;100281.28;;;8.07;100.00
60015;BME280;45867;52.480;6.056;2024-02-21T04:46:07;100285.25;;;8.15;100.00
60015;BME280;45867;52.480;6.056;2024-02-21T04:48:34;100255.69;;;8.03;100.00
60015;BME280;45867;52.480;6.056;2024-02-21T04:51:00;100286.56;;;8.17;100.00
60015;BME280;45867;52.480;6.056;2024-02-21T04:53:27;100276.00;;;8.17;100.00
60015;BME280;45867;52.480;6.056;2024-02-21T04:55:53;100281.28;;;8.22;100.00
60015;BME280;45867;52.480;6.056;2024-02-21T04:58:23;100287.09;;;8.25;100.00
60015;BME280;45867;52.480;6.056;2024-02-21T05:00:49;100276.00;;;8.22;100.00
60015;BME280;45867;52.480;6.056;2024-02-21T05:03:16;100276.28;;;8.26;100.00
60015;BME280;45867;52.480;6.056;2024-02-21T05:05:42;100274.16;;;8.18;100.00
60015;BME280;45867;52.480;6.056;2024-02-21T05:08:09;100276.28;;;8.26;100.00
60015;BME280;45867;52.480;6.056;2024-02-21T05:10:36;100280.25;;;8.18;100.00
60015;BME280;45867;52.480;6.056;2024-02-21T05:13:05;100290.81;;;8.18;100.00
60015;BME280;45867;52.480;6.056;2024-02-21T05:15:31;100278.91;;;8.11;100.00
60015;BME280;45867;52.480;6.056;2024-02-21T05:17:58;100284.72;;;8.18;100.00
60015;BME280;45867;52.480;6.056;2024-02-21T05:20:24;100287.09;;;8.14;100.00
60015;BME280;45867;52.480;6.056;2024-02-21T05:22:51;100258.03;;;8.04;100.00
60015;BME280;45867;52.480;6.056;2024-02-21T05:25:18;100260.44;;;8.16;100.00
60015;BME280;45867;52.480;6.056;2024-02-21T05:27:50;100273.38;;;8.17;100.00
60015;BME280;45867;52.480;6.056;2024-02-21T05:30:17;100271.25;;;8.14;100.00
60015;BME280;45867;52.480;6.056;2024-02-21T05:32:43;100267.81;;;8.09;100.00
60015;BME280;45867;52.480;6.056;2024-02-21T05:35:10;100249.06;;;7.95;100.00
60015;BME280;45867;52.480;6.056;2024-02-21T05:37:36;100263.84;;;7.96;100.00
60015;BME280;45867;52.480;6.056;2024-02-21T05:40:03;100278.94;;;8.16;100.00
60015;BME280;45867;52.480;6.056;2024-02-21T05:42:29;100271.53;;;8.08;100.00
60015;BME280;45867;52.480;6.056;2024-02-21T05:44:56;100254.63;;;7.98;100.00
60015;BME280;45867;52.480;6.056;2024-02-21T05:47:22;100251.47;;;7.91;100.00
60015;BME280;45867;52.480;6.056;2024-02-21T05:49:49;100264.94;;;8.10;100.00
60015;BME280;45867;52.480;6.056;2024-02-21T05:52:15;100271.78;;;8.11;100.00
60015;BME280;45867;52.480;6.056;2024-02-21T05:54:42;100258.31;;;8.13;100.00
60015;BME280;45867;52.480;6.056;2024-02-21T05:57:08;100254.09;;;8.01;100.00
60015;BME280;45867;52.480;6.056;2024-02-21T05:59:35;100242.72;;;7.96;100.00
60015;BME280;45867;52.480;6.056;2024-02-21T06:02:01;100219.81;;;7.91;100.00
60015;BME280;45867;52.480;6.056;2024-02-21T06:04:28;100226.13;;;8.00;100.00
60015;BME280;45867;52.480;6.056;2024-02-21T06:06:54;100238.25;;;8.01;100.00
60015;BME280;45867;52.480;6.056;2024-02-21T06:09:21;100227.97;;;8.00;100.00
60015;BME280;45867;52.480;6.056;2024-02-21T06:11:48;100230.31;;;7.96;100.00
60015;BME280;45867;52.480;6.056;2024-02-21T06:14:14;100251.22;;;8.08;100.00
60015;BME280;45867;52.480;6.056;2024-02-21T06:16:41;100232.97;;;7.96;100.00
60015;BME280;45867;52.480;6.056;2024-02-21T06:19:07;100234.81;;;7.96;100.00
60015;BME280;45867;52.480;6.056;2024-02-21T06:21:36;100217.16;;;7.91;100.00
60015;BME280;45867;52.480;6.056;2024-02-21T06:24:03;100236.94;;;8.04;100.00
60015;BME280;45867;52.480;6.056;2024-02-21T06:26:29;100230.63;;;8.00;100.00
60015;BME280;45867;52.480;6.056;2024-02-21T06:28:56;100237.19;;;7.92;100.00
60015;BME280;45867;52.480;6.056;2024-02-21T06:31:23;100241.97;;;8.06;100.00
60015;BME280;45867;52.480;6.056;2024-02-21T06:33:49;100226.66;;;7.92;100.00
60015;BME280;45867;52.480;6.056;2024-02-21T06:36:37;100240.38;;;8.05;100.00
60015;BME280;45867;52.480;6.056;2024-02-21T06:39:03;100224.81;;;7.98;100.00
60015;BME280;45867;52.480;6.056;2024-02-21T06:41:29;100235.63;;;7.91;100.00
60015;BME280;45867;52.480;6.056;2024-02-21T06:43:55;100240.38;;;7.89;100.00
60015;BME280;45867;52.480;6.056;2024-02-21T06:46:25;100254.91;;;7.97;100.00
60015;BME280;45867;52.480;6.056;2024-02-21T06:48:56;100236.66;;;7.80;100.00
60015;BME280;45867;52.480;6.056;2024-02-21T06:51:27;100244.56;;;7.85;100.00
60015;BME280;45867;52.480;6.056;2024-02-21T06:53:57;100236.16;;;7.83;100.00
60015;BME280;45867;52.480;6.056;2024-02-21T06:56:25;100235.84;;;7.79;100.00
60015;BME280;45867;52.480;6.056;2024-02-21T06:58:52;100245.66;;;7.94;100.00
60015;BME280;45867;52.480;6.056;2024-02-21T07:01:19;100223.75;;;7.84;100.00
60015;BME280;45867;52.480;6.056;2024-02-21T07:03:46;100246.97;;;7.92;100.00
60015;BME280;45867;52.480;6.056;2024-02-21T07:06:13;100219.53;;;7.77;100.00
60015;BME280;45867;52.480;6.056;2024-02-21T07:08:46;100243.81;;;7.95;100.00
60015;BME280;45867;52.480;6.056;2024-02-21T07:11:12;100241.94;;;7.90;100.00
60015;BME280;45867;52.480;6.056;2024-02-21T07:13:39;100221.63;;;7.75;100.00
60015;BME280;45867;52.480;6.056;2024-02-21T07:16:07;100240.38;;;7.89;100.00
60015;BME280;45867;52.480;6.056;2024-02-21T07:18:34;100243.53;;;7.91;100.00
60015;BME280;45867;52.480;6.056;2024-02-21T07:21:01;100240.38;;;7.94;100.00
60015;BME280;45867;52.480;6.056;2024-02-21T07:23:27;100215.31;;;7.87;100.00
60015;BME280;45867;52.480;6.056;2024-02-21T07:25:57;100232.47;;;7.94;100.00
60015;BME280;45867;52.480;6.056;2024-02-21T07:28:26;100219.00;;;7.81;100.00
60015;BME280;45867;52.480;6.056;2024-02-21T07:30:53;100233.78;;;7.87;100.00
60015;BME280;45867;52.480;6.056;2024-02-21T07:33:19;100224.53;;;7.94;100.00
60015;BME280;45867;52.480;6.056;2024-02-21T07:35:46;100218.97;;;7.91;100.00
60015;BME280;45867;52.480;6.056;2024-02-21T07:38:15;100216.09;;;7.92;100.00
60015;BME280;45867;52.480;6.056;2024-02-21T07:40:44;100216.34;;;7.96;100.00
60015;BME280;45867;52.480;6.056;2024-02-21T07:43:11;100202.91;;;7.87;100.00
60015;BME280;45867;52.480;6.056;2024-02-21T07:45:37;100214.78;;;7.90;100.00
60015;BME280;45867;52.480;6.056;2024-02-21T07:48:04;100216.34;;;7.96;100.00
60015;BME280;45867;52.480;6.056;2024-02-21T07:50:31;100217.16;;;8.01;100.00
60015;BME280;45867;52.480;6.056;2024-02-21T07:52:57;100204.50;;;8.04;100.00
60015;BME280;45867;52.480;6.056;2024-02-21T07:55:27;100187.31;;;7.91;100.00
60015;BME280;45867;52.480;6.056;2024-02-21T07:57:54;100202.13;;;8.02;100.00
60015;BME280;45867;52.480;6.056;2024-02-21T08:00:20;100184.44;;;7.97;100.00
60015;BME280;45867;52.480;6.056;2024-02-21T08:02:48;100199.22;;;8.14;100.00
60015;BME280;45867;52.480;6.056;2024-02-21T08:05:15;100204.25;;;8.10;100.00
60015;BME280;45867;52.480;6.056;2024-02-21T08:07:42;100195.25;;;8.01;100.00
60015;BME280;45867;52.480;6.056;2024-02-21T08:10:08;100196.03;;;7.96;100.00
60015;BME280;45867;52.480;6.056;2024-02-21T08:12:35;100213.72;;;8.11;100.00
60015;BME280;45867;52.480;6.056;2024-02-21T08:15:02;100199.22;;;8.14;100.00
60015;BME280;45867;52.480;6.056;2024-02-21T08:17:29;100203.16;;;8.16;100.00
60015;BME280;45867;52.480;6.056;2024-02-21T08:19:58;100213.97;;;8.20;100.00
60015;BME280;45867;52.480;6.056;2024-02-21T08:22:25;100198.69;;;8.12;100.00
60015;BME280;45867;52.480;6.056;2024-02-21T08:24:52;100222.97;;;8.24;100.00
60015;BME280;45867;52.480;6.056;2024-02-21T08:27:19;100227.19;;;8.25;100.00
60015;BME280;45867;52.480;6.056;2024-02-21T08:29:46;100226.13;;;8.26;100.00
60015;BME280;45867;52.480;6.056;2024-02-21T08:32:12;100222.94;;;8.29;100.00
60015;BME280;45867;52.480;6.056;2024-02-21T08:34:39;100226.41;;;8.30;100.00
60015;BME280;45867;52.480;6.056;2024-02-21T08:37:06;100224.00;;;8.33;100.00
60015;BME280;45867;52.480;6.056;2024-02-21T08:39:32;100229.81;;;8.35;100.00
60015;BME280;45867;52.480;6.056;2024-02-21T08:41:59;100214.22;;;8.34;100.00
60015;BME280;45867;52.480;6.056;2024-02-21T08:44:27;100211.38;;;8.40;100.00
60015;BME280;45867;52.480;6.056;2024-02-21T08:46:55;100208.69;;;8.35;100.00
60015;BME280;45867;52.480;6.056;2024-02-21T08:49:22;100228.25;;;8.50;100.00
60015;BME280;45867;52.480;6.056;2024-02-21T08:51:56;100231.69;;;8.40;100.00
60015;BME280;45867;52.480;6.056;2024-02-21T08:54:23;100243.56;;;8.53;100.00
60015;BME280;45867;52.480;6.056;2024-02-21T08:56:49;100239.84;;;8.59;100.00
60015;BME280;45867;52.480;6.056;2024-02-21T08:59:16;100234.31;;;8.45;100.00
60015;BME280;45867;52.480;6.056;2024-02-21T09:01:43;100258.84;;;8.61;100.00
60015;BME280;45867;52.480;6.056;2024-02-21T09:04:10;100247.75;;;8.59;100.00
60015;BME280;45867;52.480;6.056;2024-02-21T09:06:37;100253.88;;;8.54;100.00
60015;BME280;45867;52.480;6.056;2024-02-21T09:09:04;100269.19;;;8.57;100.00
60015;BME280;45867;52.480;6.056;2024-02-21T09:11:30;100279.50;;;8.49;100.00
60015;BME280;45867;52.480;6.056;2024-02-21T09:13:57;100278.94;;;8.57;100.00
60015;BME280;45867;52.480;6.056;2024-02-21T09:16:23;100281.06;;;8.50;100.00
60015;BME280;45867;52.480;6.056;2024-02-21T09:18:50;100284.22;;;8.57;100.00
60015;BME280;45867;52.480;6.056;2024-02-21T09:21:17;100276.81;;;8.59;100.00
60015;BME280;45867;52.480;6.056;2024-02-21T09:23:45;100286.88;;;8.57;100.00
60015;BME280;45867;52.480;6.056;2024-02-21T09:26:12;100291.63;;;8.60;100.00
60015;BME280;45867;52.480;6.056;2024-02-21T09:28:39;100269.44;;;8.35;100.00
60015;BME280;45867;52.480;6.056;2024-02-21T09:31:05;100268.63;;;8.35;100.00
60015;BME280;45867;52.480;6.056;2024-02-21T09:33:32;100275.78;;;8.60;100.00
60015;BME280;45867;52.480;6.056;2024-02-21T09:35:59;100284.47;;;8.55;100.00
60015;BME280;45867;52.480;6.056;2024-02-21T09:38:25;100265.22;;;8.55;100.00
60015;BME280;45867;52.480;6.056;2024-02-21T09:41:17;100270.22;;;8.56;100.00
60015;BME280;45867;52.480;6.056;2024-02-21T09:43:49;100271.00;;;8.67;100.00
60015;BME280;45867;52.480;6.056;2024-02-21T09:46:18;100262.81;;;8.69;100.00
60015;BME280;45867;52.480;6.056;2024-02-21T09:49:27;100249.84;;;8.77;100.00
60015;BME280;45867;52.480;6.056;2024-02-21T09:51:44;100227.13;;;8.81;100.00
60015;BME280;45867;52.480;6.056;2024-02-21T09:54:13;100244.00;;;8.85;100.00
60015;BME280;45867;52.480;6.056;2024-02-21T09:56:45;100250.38;;;8.89;100.00
60015;BME280;45867;52.480;6.056;2024-02-21T09:59:15;100259.56;;;8.97;100.00
60015;BME280;45867;52.480;6.056;2024-02-21T10:01:43;100247.72;;;8.84;100.00
60015;BME280;45867;52.480;6.056;2024-02-21T10:04:10;100255.09;;;8.93;100.00
60015;BME280;45867;52.480;6.056;2024-02-21T10:06:37;100251.94;;;8.91;100.00
60015;BME280;45867;52.480;6.056;2024-02-21T10:09:03;100245.84;;;8.95;100.00
60015;BME280;45867;52.480;6.056;2024-02-21T10:11:33;100251.94;;;8.96;100.00
60015;BME280;45867;52.480;6.056;2024-02-21T10:14:12;100248.50;;;8.90;100.00
60015;BME280;45867;52.480;6.056;2024-02-21T10:16:39;100253.72;;;9.10;100.00
60015;BME280;45867;52.480;6.056;2024-02-21T10:19:05;100235.16;;;9.26;100.00
60015;BME280;45867;52.480;6.056;2024-02-21T10:21:32;100254.44;;;9.26;100.00
60015;BME280;45867;52.480;6.056;2024-02-21T10:23:58;100261.03;;;9.34;100.00
60015;BME280;45867;52.480;6.056;2024-02-21T10:26:25;100264.75;;;9.33;100.00
60015;BME280;45867;52.480;6.056;2024-02-21T10:28:54;100268.97;;;9.29;100.00
60015;BME280;45867;52.480;6.056;2024-02-21T10:31:25;100290.91;;;9.34;100.00
60015;BME280;45867;52.480;6.056;2024-02-21T10:34:01;100288.28;;;9.29;100.00
60015;BME280;45867;52.480;6.056;2024-02-21T10:36:28;100279.50;;;9.44;100.00
60015;BME280;45867;52.480;6.056;2024-02-21T10:38:56;100279.22;;;9.46;100.00
60015;BME280;45867;52.480;6.056;2024-02-21T10:41:23;100278.50;;;9.30;100.00
60015;BME280;45867;52.480;6.056;2024-02-21T10:43:54;100303.13;;;9.20;100.00
60015;BME280;45867;52.480;6.056;2024-02-21T10:46:23;100296.47;;;9.33;100.00
60015;BME280;45867;52.480;6.056;2024-02-21T10:49:03;100295.72;;;9.22;100.00
60015;BME280;45867;52.480;6.056;2024-02-21T10:51:34;100286.19;;;9.26;100.00
60015;BME280;45867;52.480;6.056;2024-02-21T10:54:29;100290.06;;;9.49;100.00
60015;BME280;45867;52.480;6.056;2024-02-21T10:57:00;100281.91;;;9.36;100.00
60015;BME280;45867;52.480;6.056;2024-02-21T10:59:28;100284.09;;;9.13;100.00
60015;BME280;45867;52.480;6.056;2024-02-21T11:01:54;100298.31;;;9.27;100.00
60015;BME280;45867;52.480;6.056;2024-02-21T11:04:25;100278.84;;;9.03;100.00
60015;BME280;45867;52.480;6.056;2024-02-21T11:06:52;100287.25;;;9.25;100.00
60015;BME280;45867;52.480;6.056;2024-02-21T11:09:32;100279.56;;;9.29;100.00
60015;BME280;45867;52.480;6.056;2024-02-21T11:12:03;100272.63;;;9.38;100.00
60015;BME280;45867;52.480;6.056;2024-02-21T11:14:30;100271.03;;;9.42;100.00
60015;BME280;45867;52.480;6.056;2024-02-21T11:16:56;100255.75;;;9.34;100.00
60015;BME280;45867;52.480;6.056;2024-02-21T11:19:25;100269.22;;;9.38;100.00
60015;BME280;45867;52.480;6.056;2024-02-21T11:21:54;100264.25;;;9.21;100.00
60015;BME280;45867;52.480;6.056;2024-02-21T11:24:33;100263.69;;;9.34;100.00
60015;BME280;45867;52.480;6.056;2024-02-21T11:32:16;100261.94;;;9.09;100.00
60015;BME280;45867;52.480;6.056;2024-02-21T11:35:01;100236.28;;;9.09;100.00
60015;BME280;45867;52.480;6.056;2024-02-21T11:37:30;100211.97;;;9.07;100.00
60015;BME280;45867;52.480;6.056;2024-02-21T11:39:57;100203.50;;;9.10;100.00
60015;BME280;45867;52.480;6.056;2024-02-21T11:42:27;100193.13;;;9.19;100.00
60015;BME280;45867;52.480;6.056;2024-02-21T11:44:55;100193.13;;;9.19;100.00
60015;BME280;45867;52.480;6.056;2024-02-21T11:47:23;100168.84;;;9.17;100.00
60015;BME280;45867;52.480;6.056;2024-02-21T11:49:50;100153.47;;;9.24;100.00
60015;BME280;45867;52.480;6.056;2024-02-21T11:52:16;100137.03;;;9.27;100.00
60015;BME280;45867;52.480;6.056;2024-02-21T11:54:43;100134.13;;;9.34;100.00
60015;BME280;45867;52.480;6.056;2024-02-21T11:57:10;100202.34;;;9.27;100.00
60015;BME280;45867;52.480;6.056;2024-02-21T11:59:37;100199.16;;;9.30;100.00
60015;BME280;45867;52.480;6.056;2024-02-21T12:02:06;100192.84;;;9.26;100.00
60015;BME280;45867;52.480;6.056;2024-02-21T12:04:33;100191.00;;;9.26;100.00
60015;BME280;45867;52.480;6.056;2024-02-21T12:07:02;100178.34;;;9.23;100.00
60015;BME280;45867;52.480;6.056;2024-02-21T12:09:34;100179.09;;;9.29;100.00
60015;BME280;45867;52.480;6.056;2024-02-21T12:12:03;100143.41;;;9.26;100.00
60015;BME280;45867;52.480;6.056;2024-02-21T12:14:31;100143.63;;;9.35;100.00
60015;BME280;45867;52.480;6.056;2024-02-21T12:16:58;100138.88;;;9.32;100.00
60015;BME280;45867;52.480;6.056;2024-02-21T12:19:25;100152.84;;;9.38;100.00
60015;BME280;45867;52.480;6.056;2024-02-21T12:21:53;100159.28;;;9.26;100.00
60015;BME280;45867;52.480;6.056;2024-02-21T12:24:25;100149.81;;;9.20;100.00
60015;BME280;45867;52.480;6.056;2024-02-21T12:26:52;100173.81;;;9.24;100.00
60015;BME280;45867;52.480;6.056;2024-02-21T12:29:23;100143.78;;;9.04;100.00
60015;BME280;45867;52.480;6.056;2024-02-21T12:31:49;100149.56;;;9.17;100.00
60015;BME280;45867;52.480;6.056;2024-02-21T12:34:16;100143.78;;;9.09;100.00
60015;BME280;45867;52.480;6.056;2024-02-21T12:36:56;100120.25;;;9.08;100.00
60015;BME280;45867;52.480;6.056;2024-02-21T12:39:23;100110.50;;;9.03;100.00
60015;BME280;45867;52.480;6.056;2024-02-21T12:41:49;100098.59;;;9.06;100.00
60015;BME280;45867;52.480;6.056;2024-02-21T12:44:16;100078.81;;;9.03;100.00
60015;BME280;45867;52.480;6.056;2024-02-21T12:46:42;100040.69;;;9.09;100.00
60015;BME280;45867;52.480;6.056;2024-02-21T12:49:10;100038.44;;;9.27;100.00
60015;BME280;45867;52.480;6.056;2024-02-21T12:51:37;100025.19;;;9.32;100.00
60015;BME280;45867;52.480;6.056;2024-02-21T12:54:03;100018.34;;;9.31;100.00
60015;BME280;45867;52.480;6.056;2024-02-21T12:56:30;100026.69;;;9.43;100.00
60015;BME280;45867;52.480;6.056;2024-02-21T12:58:57;100005.97;;;9.21;100.00